• Join FlightAware (Why Join?)
  • Login
  • US Flag 
01:47PM EST


 

Airport Tracker/Info


-or-


 

Live Flight TrackerFlight Track Log ✈ UAL3787 ✈ 24-Apr-2013 ✈ KIAD - KMCI

Flight Track Log - Related Links

Times and Time Zones

All times are in EDT time to prevent confusion due to time zone crossing. See the UAL3787 flight status page for this flight to view local times or setup timezone preferences in your user account.

Time Position Orientation Groundspeed Altitude Reporting Facility
EDT Latitude Longitude Course Direction KTS MPH feet Rate Location/Type
08:52AM 38.9167 -77.4500 287° West 151 174 2,100  Level Potomac TRACON
08:53AM 38.8667 -77.5000 218° Southwest 231 266 3,400 2,520 Climbing Potomac TRACON
08:54AM 38.8333 -77.5500 229° Southwest 235 270 6,900 2,580 Climbing Potomac TRACON
08:56AM 38.7636 -77.6922 238° Southwest 262 302 10,800 2,100 Climbing Washington Center
08:57AM 38.7786 -77.7992 280° West 276 318 12,900 2,100 Climbing Washington Center
08:58AM 38.7981 -77.9804 287° West  Level FlightAware Approximate
08:58AM 38.7994 -77.9092 284° West 293 337 15,100  Level Washington Center
08:59AM 38.8222 -78.0244 284° West 316 364 17,200 1,800 Climbing Washington Center
09:00AM 38.8425 -78.1450 282° West 329 379 18,800 1,740 Climbing Washington Center
09:01AM 38.8522 -78.2706 276° West 351 404 20,700 1,800 Climbing Washington Center
09:02AM 38.8517 -78.3958 270° West 356 410 22,500 1,620 Climbing Washington Center
09:03AM 38.8506 -78.5292 269° West 368 423 24,000 1,500 Climbing Washington Center
09:04AM 38.8492 -78.6625 269° West 373 429 25,600 1,380 Climbing Washington Center
09:05AM 38.8478 -78.8008 269° West 380 437 26,800 900 Climbing Washington Center
09:06AM 38.8458 -78.9447 269° West 393 452 27,500 1,200 Climbing Washington Center
09:07AM 38.8439 -79.0886 269° West 403 464 29,200 1,260 Climbing Washington Center
09:08AM 38.8417 -79.2272 269° West 403 464 30,100 840 Climbing Washington Center
09:09AM 38.8394 -79.3736 269° West 403 464 30,900 780 Climbing Washington Center
09:10AM 38.8347 -79.5200 268° West 408 470 31,700 900 Climbing Washington Center
09:11AM 38.8339 -79.6692 270° West 419 482 32,700 1,020 Climbing Washington Center
09:12AM 38.8308 -79.8183 269° West 419 482 33,800 1,080 Climbing Washington Center
09:13AM 38.8278 -79.9594 268° West 414 476 34,900 660 Climbing Washington Center
09:15AM 38.8172 -80.2417 267° West 405 466 36,000 300 Climbing Indianapolis Center
09:16AM 38.8119 -80.4186 268° West 413 475 36,000 480 Level Indianapolis Center
09:17AM 38.8083 -80.5650 268° West 413 475 37,100 960 Climbing Indianapolis Center
09:18AM 38.8033 -80.7028 267° West 391 450 38,000 420 Climbing Indianapolis Center
09:19AM 38.7989 -80.8406 268° West 386 444 38,000  Level Indianapolis Center
09:20AM 38.7947 -80.9808 268° West 394 453 38,000  Level Indianapolis Center
09:21AM 38.7900 -81.1186 268° West 387 445 38,000  Level Indianapolis Center
09:22AM 38.7853 -81.2567 268° West 389 448 38,000  Level Indianapolis Center
09:23AM 38.7806 -81.3944 268° West 388 447 38,000  Level Indianapolis Center
09:24AM 38.7733 -81.5656 267° West 388 447 38,100  Climbing Indianapolis Center
09:25AM 38.7697 -81.6864 268° West 385 443 38,000 -60 Descending Indianapolis Center
09:26AM 38.7639 -81.8161 267° West 370 426 38,000  Level Indianapolis Center
09:27AM 38.7586 -81.9450 267° West 364 419 38,000  Level Indianapolis Center
09:29AM 38.7519 -82.1006 267° West 366 421 38,000  Level Indianapolis Center
09:30AM 38.7475 -82.2322 268° West 370 426 38,000  Level Indianapolis Center
09:31AM 38.7414 -82.3650 267° West 373 429 38,000  Level Indianapolis Center
09:32AM 38.7369 -82.4972 268° West 372 428 38,000  Level Indianapolis Center
09:33AM 38.7314 -82.6314 267° West 377 434 38,000  Level Indianapolis Center
09:34AM 38.7261 -82.7656 267° West 377 434 38,000  Level Indianapolis Center
09:35AM 38.7186 -82.9236 267° West 370 426 38,000  Level Indianapolis Center
09:36AM 38.7131 -83.0569 267° West 374 430 38,000 -60 Level Indianapolis Center
09:37AM 38.7072 -83.1875 267° West 368 423 37,900  Descending Indianapolis Center
09:38AM 38.7008 -83.3167 266° West 362 417 38,000  Climbing Indianapolis Center
09:39AM 38.6944 -83.4439 266° West 356 410 38,000  Level Indianapolis Center
09:40AM 38.6881 -83.5719 266° West 356 410 38,000  Level Indianapolis Center
09:41AM 38.6817 -83.6994 266° West 356 410 38,000  Level Indianapolis Center
09:42AM 38.6753 -83.8283 266° West 358 412 38,000  Level Indianapolis Center
09:43AM 38.6681 -83.9794 267° West 361 415 38,000  Level Indianapolis Center
09:44AM 38.6608 -84.1092 266° West 361 415 38,000 -60 Level Indianapolis Center
09:45AM 38.6536 -84.2383 266° West 360 414 37,900  Descending Indianapolis Center
09:46AM 38.6539 -84.3706 270° West 369 425 38,000  Climbing Indianapolis Center
09:47AM 38.6611 -84.5050 274° West 374 430 38,000  Level Indianapolis Center
09:48AM 38.6686 -84.6333 274° West 371 427 38,000  Level Indianapolis Center
09:49AM 38.6753 -84.7683 274° West 378 435 38,000  Level Indianapolis Center
09:50AM 38.6856 -84.9261 275° West 378 435 38,000  Level Indianapolis Center
09:51AM 38.6928 -85.0617 274° West 380 437 38,000  Level Indianapolis Center
09:52AM 38.6994 -85.1958 274° West 377 434 38,000  Level Indianapolis Center
09:53AM 38.7064 -85.3319 274° West 380 437 38,000  Level Indianapolis Center
09:54AM 38.7133 -85.4675 274° West 380 437 38,000  Level Indianapolis Center
09:55AM 38.7206 -85.6033 274° West 378 435 38,000  Level Indianapolis Center
09:56AM 38.7275 -85.7381 274° West 376 433 38,000  Level Indianapolis Center
09:57AM 38.7350 -85.8956 274° West 377 434 38,000  Level Indianapolis Center
09:58AM 38.7394 -86.0069 273° West 370 426 38,000  Level Indianapolis Center
09:59AM 38.7475 -86.1667 274° West 372 428 38,000  Level Indianapolis Center
10:01AM 38.7542 -86.2992 274° West 373 429 38,000  Level Indianapolis Center
10:02AM 38.7583 -86.4306 272° West 370 426 38,000  Level Indianapolis Center
10:03AM 38.7642 -86.5631 273° West 371 427 38,000  Level Indianapolis Center
10:04AM 38.7703 -86.6942 273° West 371 427 38,000  Level Indianapolis Center
10:05AM 38.7756 -86.8258 273° West 370 426 38,000  Level Indianapolis Center
10:06AM 38.7811 -86.9814 273° West 366 421 38,000  Level Indianapolis Center
10:07AM 38.7861 -87.1097 273° West 363 418 38,000  Level Indianapolis Center
10:08AM 38.7906 -87.2378 273° West 361 415 38,000  Level Indianapolis Center
10:09AM 38.7950 -87.3650 273° West 359 413 38,000  Level Indianapolis Center
10:10AM 38.7994 -87.4936 273° West 361 415 38,000  Level Indianapolis Center
10:11AM 38.8033 -87.6208 272° West 359 413 38,000  Level Indianapolis Center
10:12AM 38.8075 -87.7481 272° West 357 411 38,000  Level Indianapolis Center
10:13AM 38.8114 -87.9014 272° West 359 413 38,000  Level Indianapolis Center
10:13AM 38.8133 -87.9536 273° West 357 411 38,000  Level Kansas City Center
10:15AM 38.8169 -88.0819 272° West 358 412 38,000  Level Kansas City Center
10:16AM 38.8200 -88.2378 271° West 362 417 38,000  Level Kansas City Center
10:17AM 38.8242 -88.3656 272° West 360 414 38,000  Level Kansas City Center
10:18AM 38.8264 -88.4939 271° West 358 412 38,000  Level Kansas City Center
10:19AM 38.8314 -88.6222 273° West 359 413 38,000  Level Kansas City Center
10:20AM 38.8333 -88.7572 271° West 354 407 38,000  Level Kansas City Center
10:21AM 38.8358 -88.8833 271° West 354 407 38,000  Level Kansas City Center
10:22AM 38.8394 -89.0211 272° West 355 409 38,000  Level Kansas City Center
10:23AM 38.8425 -89.1467 272° West 355 409 38,000  Level Kansas City Center
10:24AM 38.8439 -89.2844 271° West 360 414 38,000  Level Kansas City Center
10:25AM 38.8469 -89.4117 272° West 359 413 38,000  Level Kansas City Center
10:26AM 38.8492 -89.5489 271° West 360 414 38,000  Level Kansas City Center
10:27AM 38.8511 -89.6736 271° West 365 420 38,000  Level Kansas City Center
10:28AM 38.8539 -89.8050 272° West 367 422 38,000  Level Kansas City Center
10:29AM 38.8544 -89.9367 270° West 370 426 38,000  Level Kansas City Center
10:30AM 38.8578 -90.0808 272° West 373 429 38,000  Level Kansas City Center
10:31AM 38.8597 -90.2167 271° West 377 434 38,000  Level Kansas City Center
10:32AM 38.8608 -90.3539 271° West 382 440 38,000  Level Kansas City Center
10:33AM 38.8719 -90.4886 276° West 377 434 38,000  Level Kansas City Center
10:34AM 38.9172 -90.6186 294° West 392 451 38,000  Level Kansas City Center
10:35AM 38.9714 -90.7508 298° West 401 461 38,000  Level Kansas City Center
10:36AM 39.0347 -90.9050 298° West 407 468 38,000  Level Kansas City Center
10:37AM 39.0872 -91.0358 297° West 411 473 38,000  Level Kansas City Center
10:38AM 39.1403 -91.1686 297° West 417 480 38,000  Level Kansas City Center
10:39AM 39.1931 -91.3006 297° West 415 478 38,000  Level Kansas City Center
10:40AM 39.2439 -91.4311 297° West 413 475 38,000  Level Kansas City Center
10:41AM 39.2950 -91.5606 297° West 407 468 38,000  Level Kansas City Center
10:42AM 39.3542 -91.7089 297° West 406 467 38,000  Level Kansas City Center
10:43AM 39.4039 -91.8378 297° West 405 466 38,000  Level Kansas City Center
10:44AM 39.4558 -91.9681 297° West 408 470 38,000  Level Kansas City Center
10:45AM 39.5053 -92.0978 296° West 404 465 38,000  Level Kansas City Center
10:47AM 39.5553 -92.2267 297° West 403 464 38,000  Level Kansas City Center
10:48AM 39.6156 -92.3822 297° West 404 465 38,000 -420 Level Kansas City Center
10:49AM 39.6528 -92.5147 290° West 395 455 37,200 -1,680 Descending Kansas City Center
10:50AM 39.6525 -92.6525 270° West 383 441 34,600 -2,520 Descending Kansas City Center
10:51AM 39.6500 -92.7833 269° West 374 430 32,100 -2,400 Descending Kansas City Center
10:52AM 39.6486 -92.9156 269° West 368 423 29,600 -2,400 Descending Kansas City Center
10:53AM 39.6461 -93.0503 269° West 373 429 27,100 -2,640 Descending Kansas City Center
10:54AM 39.6433 -93.2067 269° West 365 420 24,100 -2,640 Descending Kansas City Center
10:55AM 39.6422 -93.3311 269° West 352 405 21,600 -2,400 Descending Kansas City Center
10:56AM 39.6392 -93.4542 268° West 347 399 19,300 -1,980 Descending Kansas City Center
10:57AM 39.6364 -93.5800 268° West 348 400 17,600 -1,560 Descending Kansas City Center
10:58AM 39.6333 -93.7089 268° West 358 412 16,100 -1,440 Descending Kansas City Center
10:59AM 39.6303 -93.8486 268° West 358 412 14,700 -1,260 Descending Kansas City Center
11:00AM 39.5789 -93.9750 242° Southwest 363 418 13,600 -900 Descending Kansas City Center
11:01AM 39.5258 -94.0833 238° Southwest 369 425 12,900 -720 Descending Kansas City Center
11:02AM 39.4631 -94.2056 236° Southwest 364 419 12,200 -480 Descending Kansas City Center
11:03AM 39.4103 -94.3108 237° Southwest 364 419 12,000 -120 Descending Kansas City Center
11:04AM 39.3489 -94.4297 236° Southwest 354 407 12,000 -1,560 Level Kansas City Center
11:06AM 39.2500 -94.6000 233° Southwest 257 296 7,100 -1,980 Descending Kansas City TRACON
11:07AM 39.2011 -94.6172 195° South 237 273 6,000 -1,320 Descending Kansas City Center
11:08AM 39.1717 -94.6603 229° Southwest 185 213 4,600 -1,380 Descending Kansas City Center
11:09AM 39.1875 -94.7197 289° West 152 175 3,200 -1,080 Descending Kansas City Center
11:10AM 39.2267 -94.7256 353° North 153 176 2,400 -900 Descending Kansas City Center
11:11AM 39.2672 -94.7142 12° North 134 154 1,400 -720 Descending Kansas City Center
11:12AM 39.2950 -94.7061 13° North 94 108 1,000 -420 Descending Kansas City Center